Private Wetterstation Wechselburg
Wetterdaten: Woche 30.05.11 - 05.06.11 (KW22)
Datum Zeit Temp. +2m Bodentemp. Temp.+5cm Temp. Wind Windchill X Diff Temp. Feuchte +2m Feuchte +5cm Sonnenschein Luftdruck Regen Wind Richtung Sonnenschein UV Taupunkt Windchill Windben
30.05.2011 00:00 16,2 C 19,7 C 14,2 C 15,1 C 12,9 C 0,0 C 65 % 73 % 0 % 1017,7 hPa 0,0 l/m 0,0 km/h (0 Bft) N 0,00 h 0,0 UV-I 9,6 C 12,9 C 0,0 km/h (0 Bft)
30.05.2011 01:00 15,3 C 19,5 C 13,4 C 14,0 C 11,4 C 0,0 C 69 % 77 % 0 % 1017,9 hPa 0,0 l/m 0,0 km/h (0 Bft) N 0,00 h 0,0 UV-I 9,6 C 11,4 C 0,2 km/h (0 Bft)
30.05.2011 02:00 14,3 C 19,4 C 12,4 C 12,9 C 10,1 C 0,0 C 72 % 80 % 0 % 1018,0 hPa 0,0 l/m 0,0 km/h (0 Bft) N 0,00 h 0,0 UV-I 9,4 C 10,1 C 0,0 km/h (0 Bft)
30.05.2011 03:00 13,4 C 19,3 C 11,7 C 12,1 C 9,5 C 0,0 C 74 % 82 % 0 % 1017,6 hPa 0,0 l/m 0,1 km/h (0 Bft) N 0,00 h 0,0 UV-I 8,8 C 9,5 C 0,4 km/h (0 Bft)
30.05.2011 04:00 12,7 C 19,1 C 11,0 C 11,4 C 8,8 C 0,0 C 76 % 83 % 0 % 1017,6 hPa 0,0 l/m 0,0 km/h (0 Bft) N 0,00 h 0,0 UV-I 8,5 C 8,8 C 0,0 km/h (0 Bft)
30.05.2011 05:00 12,3 C 19,0 C 10,7 C 11,1 C 8,8 C 0,0 C 77 % 84 % 0 % 1018,2 hPa 0,0 l/m 0,0 km/h (0 Bft) N 0,00 h 0,0 UV-I 8,4 C 8,8 C 0,0 km/h (0 Bft)
30.05.2011 06:00 14,3 C 18,6 C 11,3 C 13,1 C 10,6 C 0,0 C 74 % 85 % 0 % 1017,9 hPa 0,0 l/m 0,1 km/h (0 Bft) N 0,00 h 0,0 UV-I 9,7 C 10,6 C 0,0 km/h (0 Bft)
30.05.2011 07:00 17,5 C 18,4 C 13,2 C 22,8 C 22,8 C 5,3 C 63 % 81 % 88 % 1018,5 hPa 0,0 l/m 0,4 km/h (0 Bft) SW 0,75 h 0,2 UV-I 10,5 C 22,8 C 1,0 km/h (0 Bft)
30.05.2011 08:00 20,2 C 18,3 C 15,1 C 27,5 C 27,5 C 7,2 C 59 % 80 % 100 % 1018,3 hPa 0,0 l/m 0,7 km/h (0 Bft) W-SW 1,00 h 0,7 UV-I 12,0 C 27,5 C 1,2 km/h (1 Bft)
30.05.2011 09:00 21,2 C 18,3 C 17,7 C 30,7 C 30,7 C 9,5 C 57 % 73 % 100 % 1018,2 hPa 0,0 l/m 0,9 km/h (0 Bft) S-SW 1,00 h 1,3 UV-I 12,5 C 30,7 C 2,0 km/h (1 Bft)
30.05.2011 10:00 22,7 C 18,4 C 20,4 C 31,4 C 31,4 C 8,7 C 52 % 63 % 100 % 1017,7 hPa 0,0 l/m 2,2 km/h (1 Bft) S 1,00 h 2,0 UV-I 12,3 C 31,4 C 3,8 km/h (1 Bft)
30.05.2011 11:00 24,6 C 18,5 C 22,9 C 30,7 C 30,7 C 6,1 C 47 % 53 % 100 % 1017,3 hPa 0,0 l/m 3,5 km/h (1 Bft) O-NO 1,00 h 2,2 UV-I 12,4 C 30,7 C 3,6 km/h (1 Bft)
30.05.2011 12:00 26,5 C 18,8 C 24,7 C 31,5 C 31,5 C 5,0 C 40 % 46 % 100 % 1016,9 hPa 0,0 l/m 3,1 km/h (1 Bft) NO 1,00 h 3,9 UV-I 11,9 C 31,5 C 4,3 km/h (1 Bft)
30.05.2011 13:00 27,3 C 19,1 C 25,7 C 31,3 C 31,3 C 4,0 C 39 % 44 % 96 % 1016,5 hPa 0,0 l/m 4,1 km/h (1 Bft) O-NO 0,83 h 4,4 UV-I 12,2 C 31,3 C 7,1 km/h (2 Bft)
30.05.2011 14:00 28,0 C 19,4 C 27,3 C 31,7 C 31,7 C 3,7 C 40 % 44 % 94 % 1015,9 hPa 0,0 l/m 4,0 km/h (1 Bft) NO 0,87 h 3,9 UV-I 13,0 C 31,7 C 6,8 km/h (2 Bft)
30.05.2011 15:00 28,6 C 19,9 C 29,6 C 32,0 C 32,0 C 3,4 C 40 % 41 % 87 % 1015,3 hPa 0,0 l/m 4,8 km/h (1 Bft) NO 0,58 h 2,7 UV-I 13,9 C 32,0 C 7,9 km/h (2 Bft)
30.05.2011 16:00 29,2 C 20,4 C 28,8 C 33,6 C 33,6 C 4,4 C 39 % 42 % 99 % 1014,5 hPa 0,0 l/m 2,3 km/h (1 Bft) NO 1,00 h 1,3 UV-I 13,7 C 33,6 C 3,0 km/h (1 Bft)
30.05.2011 17:00 29,6 C 20,8 C 28,0 C 32,9 C 32,9 C 3,3 C 37 % 42 % 87 % 1013,8 hPa 0,0 l/m 2,8 km/h (1 Bft) O-NO 0,58 h 0,9 UV-I 13,5 C 32,9 C 3,5 km/h (1 Bft)
30.05.2011 18:00 29,6 C 20,8 C 27,3 C 32,3 C 32,3 C 2,7 C 37 % 43 % 72 % 1013,1 hPa 0,0 l/m 2,4 km/h (1 Bft) N-NO 0,00 h 0,3 UV-I 13,3 C 32,3 C 2,2 km/h (1 Bft)
30.05.2011 19:00 28,7 C 21,3 C 26,1 C 30,1 C 30,1 C 1,3 C 39 % 46 % 35 % 1012,6 hPa 0,0 l/m 3,0 km/h (1 Bft) O-NO 0,00 h 0,1 UV-I 13,5 C 30,1 C 3,7 km/h (1 Bft)
30.05.2011 20:00 26,2 C 21,4 C 24,3 C 25,8 C 24,9 C 0,0 C 44 % 50 % 0 % 1012,6 hPa 0,0 l/m 5,0 km/h (1 Bft) NO 0,00 h 0,0 UV-I 13,0 C 24,9 C 6,2 km/h (2 Bft)
30.05.2011 21:00 24,2 C 21,4 C 22,5 C 23,5 C 22,2 C 0,0 C 48 % 54 % 0 % 1012,5 hPa 0,0 l/m 2,9 km/h (1 Bft) N-NO 0,00 h 0,0 UV-I 12,3 C 22,2 C 3,9 km/h (1 Bft)
30.05.2011 22:00 23,0 C 21,3 C 21,1 C 22,3 C 20,8 C 0,0 C 51 % 58 % 0 % 1012,2 hPa 0,0 l/m 1,6 km/h (1 Bft) O-NO 0,00 h 0,0 UV-I 12,2 C 20,8 C 2,3 km/h (1 Bft)
30.05.2011 23:00 22,1 C 21,3 C 20,0 C 21,1 C 19,3 C 0,0 C 54 % 62 % 0 % 1012,0 hPa 0,0 l/m 0,4 km/h (0 Bft) N 0,00 h 0,0 UV-I 12,2 C 19,3 C 0,5 km/h (0 Bft)
31.05.2011 00:00 21,8 C 21,1 C 19,9 C 21,0 C 19,4 C 0,0 C 55 % 63 % 0 % 1011,9 hPa 0,0 l/m 0,8 km/h (0 Bft) S 0,00 h 0,0 UV-I 12,3 C 19,4 C 2,4 km/h (1 Bft)
31.05.2011 01:00 21,2 C 21,1 C 19,4 C 20,3 C 18,5 C 0,0 C 58 % 65 % 0 % 1011,7 hPa 0,0 l/m 0,4 km/h (0 Bft) W-SW 0,00 h 0,0 UV-I 12,6 C 18,5 C 1,0 km/h (0 Bft)
31.05.2011 02:00 20,5 C 21,0 C 18,6 C 19,5 C 17,5 C 0,0 C 61 % 68 % 0 % 1011,5 hPa 0,0 l/m 0,3 km/h (0 Bft) N 0,00 h 0,0 UV-I 12,6 C 17,5 C 0,9 km/h (0 Bft)
31.05.2011 03:00 19,4 C 20,9 C 17,5 C 18,4 C 16,3 C 0,0 C 65 % 72 % 0 % 1011,3 hPa 0,0 l/m 0,3 km/h (0 Bft) O-NO 0,00 h 0,0 UV-I 12,6 C 16,3 C 0,3 km/h (0 Bft)
31.05.2011 04:00 18,2 C 20,8 C 16,2 C 17,0 C 14,5 C 0,0 C 69 % 77 % 0 % 1010,9 hPa 0,0 l/m 0,0 km/h (0 Bft) N 0,00 h 0,0 UV-I 12,4 C 14,5 C 0,0 km/h (0 Bft)
31.05.2011 05:00 17,6 C 20,6 C 15,4 C 16,4 C 14,0 C 0,0 C 71 % 79 % 0 % 1011,0 hPa 0,0 l/m 0,0 km/h (0 Bft) N 0,00 h 0,0 UV-I 12,3 C 14,0 C 0,0 km/h (0 Bft)
31.05.2011 06:00 19,3 C 20,5 C 16,0 C 18,1 C 15,9 C 0,0 C 68 % 80 % 0 % 1011,1 hPa 0,0 l/m 0,1 km/h (0 Bft) N 0,00 h 0,0 UV-I 13,3 C 15,9 C 0,6 km/h (0 Bft)
31.05.2011 07:00 22,1 C 20,3 C 18,1 C 27,6 C 27,6 C 5,5 C 61 % 77 % 89 % 1011,1 hPa 0,0 l/m 0,2 km/h (0 Bft) N 0,75 h 0,2 UV-I 14,3 C 27,6 C 0,4 km/h (0 Bft)
31.05.2011 08:00 24,7 C 20,2 C 19,5 C 31,4 C 31,4 C 6,7 C 55 % 74 % 100 % 1011,0 hPa 0,0 l/m 0,3 km/h (0 Bft) N 1,00 h 0,7 UV-I 15,1 C 31,4 C 0,4 km/h (0 Bft)
31.05.2011 09:00 25,2 C 20,2 C 21,4 C 33,1 C 33,1 C 7,9 C 56 % 71 % 100 % 1011,0 hPa 0,0 l/m 0,7 km/h (0 Bft) NW 1,00 h 1,3 UV-I 15,7 C 33,1 C 1,0 km/h (0 Bft)
31.05.2011 10:00 25,9 C 20,2 C 23,3 C 31,8 C 31,8 C 5,9 C 52 % 62 % 100 % 1010,9 hPa 0,0 l/m 4,8 km/h (1 Bft) S-SW 1,00 h 1,9 UV-I 15,2 C 31,8 C 7,0 km/h (2 Bft)
31.05.2011 11:00 27,2 C 20,4 C 24,9 C 32,7 C 32,7 C 5,5 C 49 % 58 % 100 % 1010,7 hPa 0,0 l/m 3,5 km/h (1 Bft) SW 1,00 h 2,2 UV-I 15,4 C 32,7 C 4,7 km/h (1 Bft)
31.05.2011 12:00 28,2 C 20,6 C 26,6 C 33,4 C 33,4 C 5,2 C 47 % 53 % 100 % 1010,4 hPa 0,0 l/m 3,1 km/h (1 Bft) SW 1,00 h 3,4 UV-I 15,7 C 33,4 C 4,0 km/h (1 Bft)
31.05.2011 13:00 28,8 C 20,9 C 27,4 C 32,9 C 32,9 C 4,1 C 44 % 49 % 90 % 1010,0 hPa 0,0 l/m 2,5 km/h (1 Bft) NO 0,83 h 2,5 UV-I 15,2 C 32,9 C 2,9 km/h (1 Bft)
31.05.2011 14:00 26,4 C 21,1 C 25,0 C 26,3 C 25,9 C 0,1 C 50 % 56 % 4 % 1009,8 hPa 0,0 l/m 3,9 km/h (1 Bft) SW 0,00 h 0,2 UV-I 15,3 C 25,9 C 6,7 km/h (2 Bft)
31.05.2011 15:00 20,9 C 21,7 C 18,6 C 19,8 C 17,6 C 0,0 C 73 % 84 % 0 % 1011,4 hPa 11,0 l/m 6,8 km/h (2 Bft) S 0,00 h 0,0 UV-I 15,8 C 17,6 C 7,7 km/h (2 Bft)
31.05.2011 16:00 18,7 C 21,8 C 16,7 C 18,0 C 16,6 C 0,0 C 83 % 93 % 0 % 1011,6 hPa 0,7 l/m 1,5 km/h (1 Bft) NO 0,00 h 0,0 UV-I 15,7 C 16,6 C 1,9 km/h (1 Bft)
31.05.2011 17:00 18,9 C 21,7 C 17,3 C 18,8 C 18,5 C 0,0 C 86 % 94 % 1 % 1011,4 hPa 0,0 l/m 0,4 km/h (0 Bft) S 0,00 h 0,2 UV-I 16,4 C 18,5 C 0,5 km/h (0 Bft)
31.05.2011 18:00 20,0 C 21,5 C 18,4 C 20,7 C 20,7 C 0,7 C 85 % 94 % 18 % 1011,2 hPa 0,0 l/m 1,8 km/h (1 Bft) SW 0,00 h 0,2 UV-I 17,4 C 20,7 C 2,5 km/h (1 Bft)
31.05.2011 19:00 20,2 C 21,4 C 18,4 C 20,3 C 20,2 C 0,2 C 84 % 94 % 4 % 1011,4 hPa 0,0 l/m 0,2 km/h (0 Bft) N 0,00 h 0,1 UV-I 17,4 C 20,2 C 0,2 km/h (0 Bft)
31.05.2011 20:00 20,0 C 21,2 C 18,2 C 19,7 C 19,3 C 0,0 C 83 % 94 % 0 % 1012,4 hPa 0,0 l/m 1,2 km/h (1 Bft) S 0,00 h 0,0 UV-I 17,1 C 19,3 C 2,0 km/h (1 Bft)
31.05.2011 21:00 19,2 C 21,1 C 17,4 C 18,7 C 17,7 C 0,0 C 83 % 94 % 0 % 1013,7 hPa 0,0 l/m 2,2 km/h (1 Bft) W-SW 0,00 h 0,0 UV-I 16,3 C 17,7 C 3,4 km/h (1 Bft)
31.05.2011 22:00 18,5 C 21,0 C 16,8 C 18,0 C 16,9 C 0,0 C 84 % 94 % 0 % 1014,5 hPa 0,0 l/m 2,7 km/h (1 Bft) S 0,00 h 0,0 UV-I 15,6 C 16,9 C 4,3 km/h (1 Bft)
31.05.2011 23:00 17,5 C 20,8 C 15,6 C 16,9 C 15,8 C 0,0 C 81 % 92 % 0 % 1015,2 hPa 0,0 l/m 3,1 km/h (1 Bft) S-SO 0,00 h 0,0 UV-I 14,2 C 15,8 C 3,5 km/h (1 Bft)
01.06.2011 00:00 16,9 C 20,7 C 15,3 C 16,4 C 15,3 C 0,0 C 83 % 93 % 0 % 1016,0 hPa 0,0 l/m 1,9 km/h (1 Bft) O 0,00 h 0,0 UV-I 14,0 C 15,3 C 4,1 km/h (1 Bft)
01.06.2011 01:00 16,5 C 20,6 C 15,2 C 16,0 C 15,0 C 0,0 C 85 % 93 % 0 % 1016,1 hPa 0,7 l/m 2,0 km/h (1 Bft) W-SW 0,00 h 0,0 UV-I 14,0 C 15,0 C 2,9 km/h (1 Bft)
01.06.2011 02:00 15,9 C 20,4 C 14,6 C 15,4 C 14,3 C 0,0 C 85 % 92 % 0 % 1016,6 hPa 0,0 l/m 3,6 km/h (1 Bft) S 0,00 h 0,0 UV-I 13,4 C 14,3 C 5,8 km/h (2 Bft)
01.06.2011 03:00 15,1 C 20,4 C 13,7 C 14,6 C 13,4 C 0,0 C 85 % 92 % 0 % 1017,6 hPa 0,7 l/m 3,7 km/h (1 Bft) NW 0,00 h 0,0 UV-I 12,5 C 13,4 C 5,4 km/h (1 Bft)
01.06.2011 04:00 14,5 C 20,3 C 12,9 C 13,9 C 12,7 C 0,0 C 86 % 94 % 0 % 1018,1 hPa 0,0 l/m 3,2 km/h (1 Bft) S 0,00 h 0,0 UV-I 12,1 C 12,7 C 5,7 km/h (1 Bft)
01.06.2011 05:00 13,7 C 20,0 C 12,0 C 13,0 C 11,7 C 0,0 C 86 % 94 % 0 % 1018,9 hPa 0,7 l/m 2,7 km/h (1 Bft) S 0,00 h 0,0 UV-I 11,3 C 11,7 C 5,6 km/h (1 Bft)
01.06.2011 06:00 13,3 C 19,8 C 11,8 C 12,7 C 11,5 C 0,0 C 86 % 94 % 0 % 1019,6 hPa 8,2 l/m 2,2 km/h (1 Bft) W-NW 0,00 h 0,0 UV-I 10,9 C 11,5 C 3,3 km/h (1 Bft)
01.06.2011 07:00 13,1 C 19,6 C 11,6 C 12,5 C 11,3 C 0,0 C 86 % 94 % 0 % 1020,3 hPa 0,0 l/m 2,2 km/h (1 Bft) W 0,00 h 0,0 UV-I 10,8 C 11,3 C 3,8 km/h (1 Bft)
01.06.2011 08:00 12,8 C 19,5 C 11,4 C 12,3 C 11,2 C 0,0 C 87 % 95 % 0 % 1021,4 hPa 1,4 l/m 1,7 km/h (1 Bft) NW 0,00 h 0,0 UV-I 10,7 C 11,2 C 2,5 km/h (1 Bft)
01.06.2011 09:00 12,8 C 19,4 C 11,3 C 12,3 C 11,2 C 0,0 C 87 % 95 % 0 % 1022,2 hPa 0,0 l/m 1,1 km/h (0 Bft) O-SO 0,00 h 0,1 UV-I 10,6 C 11,2 C 2,3 km/h (1 Bft)
01.06.2011 10:00 12,6 C 19,2 C 11,1 C 12,0 C 11,0 C 0,0 C 86 % 95 % 0 % 1022,7 hPa 0,0 l/m 1,1 km/h (0 Bft) N-NO 0,00 h 0,0 UV-I 10,3 C 11,0 C 1,0 km/h (0 Bft)
01.06.2011 11:00 12,3 C 18,9 C 10,8 C 11,8 C 10,8 C 0,0 C 87 % 95 % 0 % 1023,3 hPa 0,7 l/m 1,8 km/h (1 Bft) S 0,00 h 0,1 UV-I 10,1 C 10,8 C 2,8 km/h (1 Bft)
01.06.2011 12:00 11,9 C 18,8 C 10,5 C 11,4 C 10,4 C 0,0 C 86 % 95 % 0 % 1023,8 hPa 0,7 l/m 2,3 km/h (1 Bft) S-SO 0,00 h 0,1 UV-I 9,7 C 10,4 C 2,9 km/h (1 Bft)
01.06.2011 13:00 11,9 C 18,7 C 10,5 C 11,5 C 10,5 C 0,0 C 87 % 95 % 0 % 1024,3 hPa 0,0 l/m 1,8 km/h (1 Bft) S 0,00 h 0,2 UV-I 9,8 C 10,5 C 3,2 km/h (1 Bft)
01.06.2011 14:00 12,0 C 18,4 C 10,5 C 11,8 C 11,3 C 0,0 C 85 % 95 % 0 % 1024,7 hPa 0,0 l/m 1,7 km/h (1 Bft) SO 0,00 h 0,2 UV-I 9,7 C 11,3 C 1,7 km/h (1 Bft)
01.06.2011 15:00 12,2 C 18,2 C 10,7 C 12,0 C 11,8 C 0,0 C 84 % 95 % 0 % 1025,0 hPa 0,0 l/m 2,1 km/h (1 Bft) S 0,00 h 0,2 UV-I 9,5 C 11,8 C 3,5 km/h (1 Bft)
01.06.2011 16:00 12,4 C 18,0 C 11,1 C 12,3 C 12,2 C 0,0 C 83 % 94 % 0 % 1025,1 hPa 0,0 l/m 2,4 km/h (1 Bft) SW 0,00 h 0,2 UV-I 9,7 C 12,2 C 2,9 km/h (1 Bft)
01.06.2011 17:00 12,5 C 17,8 C 11,1 C 12,4 C 12,2 C 0,0 C 82 % 93 % 0 % 1025,3 hPa 0,0 l/m 1,7 km/h (1 Bft) SW 0,00 h 0,1 UV-I 9,6 C 12,2 C 2,3 km/h (1 Bft)
01.06.2011 18:00 12,7 C 17,8 C 11,3 C 12,5 C 12,1 C 0,0 C 83 % 94 % 0 % 1025,3 hPa 0,0 l/m 0,9 km/h (0 Bft) SW 0,00 h 0,0 UV-I 9,8 C 12,1 C 1,3 km/h (1 Bft)
01.06.2011 19:00 12,7 C 17,7 C 11,5 C 12,6 C 12,3 C 0,0 C 83 % 94 % 0 % 1025,6 hPa 0,0 l/m 0,1 km/h (0 Bft) N 0,00 h 0,0 UV-I 9,8 C 12,3 C 0,0 km/h (0 Bft)
01.06.2011 20:00 12,7 C 17,7 C 11,6 C 12,4 C 12,0 C 0,0 C 85 % 94 % 0 % 1026,2 hPa 0,0 l/m 0,1 km/h (0 Bft) N 0,00 h 0,0 UV-I 10,2 C 12,0 C 0,4 km/h (0 Bft)
01.06.2011 21:00 12,6 C 17,7 C 11,7 C 12,3 C 11,7 C 0,0 C 86 % 94 % 0 % 1026,6 hPa 0,0 l/m 0,1 km/h (0 Bft) N 0,00 h 0,0 UV-I 10,3 C 11,7 C 0,2 km/h (0 Bft)
01.06.2011 22:00 12,6 C 17,7 C 11,9 C 12,3 C 11,7 C 0,0 C 87 % 95 % 0 % 1027,1 hPa 0,0 l/m 0,0 km/h (0 Bft) N 0,00 h 0,0 UV-I 10,5 C 11,7 C 0,0 km/h (0 Bft)
01.06.2011 23:00 12,6 C 17,7 C 11,9 C 12,3 C 11,7 C 0,0 C 87 % 95 % 0 % 1027,4 hPa 0,0 l/m 0,0 km/h (0 Bft) N 0,00 h 0,0 UV-I 10,6 C 11,7 C 0,0 km/h (0 Bft)
02.06.2011 00:00 12,6 C 17,7 C 11,9 C 12,3 C 11,8 C 0,0 C 88 % 95 % 0 % 1027,6 hPa 0,0 l/m 0,0 km/h (0 Bft) N 0,00 h 0,0 UV-I 10,7 C 11,8 C 0,0 km/h (0 Bft)
02.06.2011 01:00 12,7 C 17,6 C 12,0 C 12,4 C 11,9 C 0,0 C 87 % 95 % 0 % 1028,0 hPa 0,0 l/m 0,0 km/h (0 Bft) N 0,00 h 0,0 UV-I 10,6 C 11,9 C 0,0 km/h (0 Bft)
02.06.2011 02:00 12,7 C 17,6 C 12,0 C 12,4 C 11,7 C 0,0 C 87 % 95 % 0 % 1028,0 hPa 0,0 l/m 0,0 km/h (0 Bft) N 0,00 h 0,0 UV-I 10,6 C 11,7 C 0,4 km/h (0 Bft)
02.06.2011 03:00 12,5 C 17,4 C 11,6 C 12,2 C 11,6 C 0,0 C 81 % 93 % 0 % 1028,2 hPa 0,0 l/m 0,2 km/h (0 Bft) N 0,00 h 0,0 UV-I 9,4 C 11,6 C 0,7 km/h (0 Bft)
02.06.2011 04:00 12,3 C 17,4 C 11,5 C 12,0 C 11,3 C 0,0 C 81 % 91 % 0 % 1028,5 hPa 0,0 l/m 0,1 km/h (0 Bft) N 0,00 h 0,0 UV-I 9,1 C 11,3 C 0,0 km/h (0 Bft)
02.06.2011 05:00 12,0 C 17,3 C 11,3 C 11,7 C 11,1 C 0,0 C 79 % 87 % 0 % 1029,0 hPa 0,0 l/m 0,2 km/h (0 Bft) N 0,00 h 0,0 UV-I 8,5 C 11,1 C 0,3 km/h (0 Bft)
02.06.2011 06:00 12,6 C 17,2 C 11,3 C 12,4 C 12,0 C 0,0 C 77 % 85 % 0 % 1029,1 hPa 0,0 l/m 0,4 km/h (0 Bft) N 0,00 h 0,0 UV-I 8,7 C 12,0 C 1,5 km/h (1 Bft)
02.06.2011 07:00 14,1 C 17,1 C 11,9 C 16,5 C 16,5 C 2,4 C 71 % 82 % 61 % 1029,6 hPa 0,0 l/m 1,0 km/h (0 Bft) N-NO 0,25 h 0,2 UV-I 8,9 C 16,5 C 2,6 km/h (1 Bft)
02.06.2011 08:00 15,2 C 17,1 C 12,4 C 17,2 C 17,2 C 2,0 C 66 % 79 % 51 % 1029,9 hPa 0,0 l/m 1,7 km/h (1 Bft) O-SO 0,33 h 0,5 UV-I 8,8 C 17,2 C 4,1 km/h (1 Bft)
02.06.2011 09:00 15,2 C 17,0 C 13,2 C 19,6 C 19,6 C 4,4 C 63 % 73 % 84 % 1030,4 hPa 0,0 l/m 2,2 km/h (1 Bft) O-NO 0,67 h 1,2 UV-I 8,2 C 19,6 C 3,3 km/h (1 Bft)
02.06.2011 10:00 16,1 C 17,1 C 14,2 C 21,8 C 21,8 C 5,7 C 54 % 64 % 100 % 1030,6 hPa 0,0 l/m 3,0 km/h (1 Bft) N-NO 1,00 h 1,8 UV-I 6,7 C 21,8 C 4,0 km/h (1 Bft)
02.06.2011 11:00 16,7 C 17,1 C 15,2 C 20,6 C 20,6 C 3,9 C 53 % 60 % 92 % 1030,5 hPa 0,0 l/m 2,5 km/h (1 Bft) O-SO 0,75 h 2,1 UV-I 7,0 C 20,6 C 3,2 km/h (1 Bft)
02.06.2011 12:00 17,9 C 17,2 C 16,7 C 22,0 C 22,0 C 4,2 C 48 % 54 % 99 % 1030,5 hPa 0,0 l/m 3,9 km/h (1 Bft) O-NO 1,00 h 3,4 UV-I 6,8 C 22,0 C 5,8 km/h (2 Bft)
02.06.2011 13:00 19,1 C 17,3 C 17,9 C 24,2 C 24,2 C 5,1 C 46 % 53 % 100 % 1030,3 hPa 0,0 l/m 2,6 km/h (1 Bft) O-NO 1,00 h 3,6 UV-I 7,0 C 24,2 C 3,4 km/h (1 Bft)
02.06.2011 14:00 19,8 C 17,3 C 19,4 C 24,5 C 24,5 C 4,7 C 44 % 51 % 98 % 1029,9 hPa 0,0 l/m 2,3 km/h (1 Bft) N-NO 1,00 h 2,6 UV-I 7,3 C 24,5 C 3,3 km/h (1 Bft)
02.06.2011 15:00 20,9 C 17,6 C 21,8 C 26,0 C 26,0 C 5,1 C 43 % 46 % 100 % 1029,2 hPa 0,0 l/m 2,5 km/h (1 Bft) O 1,00 h 2,3 UV-I 7,8 C 26,0 C 3,5 km/h (1 Bft)
02.06.2011 16:00 21,3 C 17,9 C 21,0 C 25,5 C 25,5 C 4,2 C 41 % 45 % 98 % 1029,1 hPa 0,0 l/m 2,6 km/h (1 Bft) N-NO 1,00 h 1,2 UV-I 7,5 C 25,5 C 4,3 km/h (1 Bft)
02.06.2011 17:00 21,3 C 18,2 C 20,4 C 23,9 C 23,9 C 2,7 C 41 % 46 % 67 % 1029,1 hPa 0,0 l/m 1,9 km/h (1 Bft) N-NO 0,33 h 0,6 UV-I 7,4 C 23,9 C 2,7 km/h (1 Bft)
02.06.2011 18:00 20,8 C 18,4 C 19,5 C 22,2 C 22,2 C 1,4 C 44 % 50 % 38 % 1028,4 hPa 0,0 l/m 0,6 km/h (0 Bft) SW 0,00 h 0,2 UV-I 8,0 C 22,2 C 1,4 km/h (1 Bft)
02.06.2011 19:00 20,7 C 18,6 C 19,4 C 21,6 C 21,5 C 1,0 C 44 % 51 % 27 % 1028,3 hPa 0,0 l/m 0,9 km/h (0 Bft) NO 0,17 h 0,1 UV-I 8,0 C 21,5 C 1,0 km/h (0 Bft)
02.06.2011 20:00 19,4 C 18,6 C 17,7 C 18,9 C 17,9 C 0,0 C 50 % 59 % 0 % 1028,4 hPa 0,0 l/m 0,1 km/h (0 Bft) N 0,00 h 0,0 UV-I 8,6 C 17,9 C 0,0 km/h (0 Bft)
02.06.2011 21:00 17,4 C 18,7 C 15,8 C 16,5 C 14,8 C 0,0 C 60 % 68 % 0 % 1029,1 hPa 0,0 l/m 0,0 km/h (0 Bft) N 0,00 h 0,0 UV-I 9,6 C 14,8 C 0,0 km/h (0 Bft)
02.06.2011 22:00 15,7 C 18,8 C 14,1 C 14,5 C 12,3 C 0,0 C 69 % 77 % 0 % 1029,5 hPa 0,0 l/m 0,0 km/h (0 Bft) N 0,00 h 0,0 UV-I 10,0 C 12,3 C 0,0 km/h (0 Bft)
02.06.2011 23:00 14,5 C 18,7 C 12,7 C 13,2 C 10,7 C 0,0 C 74 % 81 % 0 % 1029,6 hPa 0,0 l/m 0,0 km/h (0 Bft) N 0,00 h 0,0 UV-I 9,9 C 10,7 C 0,0 km/h (0 Bft)
03.06.2011 00:00 13,6 C 18,6 C 11,8 C 12,3 C 9,7 C 0,0 C 76 % 85 % 0 % 1029,8 hPa 0,0 l/m 0,0 km/h (0 Bft) N 0,00 h 0,0 UV-I 9,5 C 9,7 C 0,0 km/h (0 Bft)
03.06.2011 01:00 12,6 C 18,6 C 10,9 C 11,3 C 8,9 C 0,0 C 78 % 86 % 0 % 1029,9 hPa 0,0 l/m 0,0 km/h (0 Bft) N 0,00 h 0,0 UV-I 8,9 C 8,9 C 0,0 km/h (0 Bft)
03.06.2011 02:00 11,7 C 18,5 C 10,2 C 10,6 C 8,3 C 0,0 C 80 % 88 % 0 % 1030,0 hPa 0,0 l/m 0,0 km/h (0 Bft) N 0,00 h 0,0 UV-I 8,4 C 8,3 C 0,0 km/h (0 Bft)
03.06.2011 03:00 11,2 C 18,3 C 9,7 C 10,0 C 7,7 C 0,0 C 81 % 88 % 0 % 1030,0 hPa 0,0 l/m 0,0 km/h (0 Bft) N 0,00 h 0,0 UV-I 8,0 C 7,7 C 0,0 km/h (0 Bft)
03.06.2011 04:00 10,6 C 18,1 C 9,2 C 9,5 C 7,2 C 0,0 C 81 % 88 % 0 % 1030,0 hPa 0,0 l/m 0,0 km/h (0 Bft) N 0,00 h 0,0 UV-I 7,6 C 7,2 C 0,0 km/h (0 Bft)
03.06.2011 05:00 10,3 C 18,0 C 8,8 C 9,2 C 7,1 C 0,0 C 82 % 89 % 0 % 1029,6 hPa 0,0 l/m 0,0 km/h (0 Bft) N 0,00 h 0,0 UV-I 7,3 C 7,1 C 0,0 km/h (0 Bft)
03.06.2011 06:00 11,7 C 17,7 C 9,4 C 10,6 C 8,5 C 0,0 C 80 % 90 % 0 % 1029,8 hPa 0,0 l/m 0,0 km/h (0 Bft) N 0,00 h 0,0 UV-I 8,3 C 8,5 C 0,1 km/h (0 Bft)
03.06.2011 07:00 14,1 C 17,5 C 11,8 C 18,0 C 18,0 C 3,9 C 70 % 81 % 81 % 1029,7 hPa 0,0 l/m 0,9 km/h (0 Bft) N-NO 0,67 h 0,2 UV-I 8,6 C 18,0 C 2,1 km/h (1 Bft)
03.06.2011 08:00 17,4 C 17,4 C 13,6 C 21,4 C 21,4 C 4,0 C 56 % 71 % 87 % 1029,9 hPa 0,0 l/m 2,5 km/h (1 Bft) NO 0,75 h 0,7 UV-I 8,5 C 21,4 C 3,7 km/h (1 Bft)
03.06.2011 09:00 17,1 C 17,4 C 15,4 C 21,4 C 21,4 C 4,3 C 55 % 62 % 100 % 1030,2 hPa 0,0 l/m 4,3 km/h (1 Bft) O-NO 1,00 h 1,3 UV-I 7,9 C 21,4 C 6,4 km/h (2 Bft)
03.06.2011 10:00 18,1 C 17,4 C 16,5 C 23,9 C 23,9 C 5,9 C 57 % 63 % 100 % 1029,9 hPa 0,0 l/m 2,4 km/h (1 Bft) N-NO 1,00 h 1,9 UV-I 9,3 C 23,9 C 2,4 km/h (1 Bft)
03.06.2011 11:00 19,5 C 17,5 C 18,1 C 24,6 C 24,6 C 5,2 C 56 % 62 % 100 % 1029,8 hPa 0,0 l/m 2,9 km/h (1 Bft) O-NO 1,00 h 2,6 UV-I 10,4 C 24,6 C 4,7 km/h (1 Bft)
03.06.2011 12:00 20,9 C 17,6 C 19,8 C 25,9 C 25,9 C 5,1 C 54 % 58 % 100 % 1029,2 hPa 0,0 l/m 2,9 km/h (1 Bft) O-NO 1,00 h 3,5 UV-I 11,1 C 25,9 C 4,4 km/h (1 Bft)
03.06.2011 13:00 22,2 C 17,8 C 21,4 C 26,6 C 26,6 C 4,4 C 51 % 55 % 100 % 1028,5 hPa 0,0 l/m 4,3 km/h (1 Bft) O-NO 1,00 h 3,8 UV-I 11,4 C 26,6 C 6,9 km/h (2 Bft)
03.06.2011 14:00 23,4 C 18,1 C 23,2 C 28,2 C 28,2 C 4,8 C 48 % 50 % 100 % 1027,8 hPa 0,0 l/m 3,5 km/h (1 Bft) O-NO 1,00 h 3,4 UV-I 11,6 C 28,2 C 4,2 km/h (1 Bft)
03.06.2011 15:00 24,4 C 18,5 C 25,3 C 28,9 C 28,9 C 4,5 C 46 % 46 % 100 % 1027,3 hPa 0,0 l/m 3,6 km/h (1 Bft) O-NO 1,00 h 2,5 UV-I 11,9 C 28,9 C 3,5 km/h (1 Bft)
03.06.2011 16:00 25,1 C 18,9 C 25,1 C 29,5 C 29,5 C 4,3 C 45 % 47 % 100 % 1026,7 hPa 0,0 l/m 3,4 km/h (1 Bft) O-NO 1,00 h 1,2 UV-I 12,2 C 29,5 C 3,9 km/h (1 Bft)
03.06.2011 17:00 25,7 C 19,3 C 24,7 C 29,3 C 29,3 C 3,6 C 43 % 47 % 91 % 1025,8 hPa 0,0 l/m 3,4 km/h (1 Bft) O-NO 0,83 h 0,8 UV-I 12,3 C 29,3 C 4,6 km/h (1 Bft)
03.06.2011 18:00 25,9 C 19,6 C 24,3 C 28,6 C 28,6 C 2,7 C 40 % 45 % 72 % 1025,0 hPa 0,0 l/m 3,1 km/h (1 Bft) O-NO 0,00 h 0,3 UV-I 11,4 C 28,6 C 3,6 km/h (1 Bft)
03.06.2011 19:00 25,6 C 19,8 C 23,4 C 27,7 C 27,7 C 2,1 C 41 % 47 % 55 % 1024,8 hPa 0,0 l/m 1,4 km/h (1 Bft) NO 0,08 h 0,1 UV-I 11,4 C 27,7 C 2,0 km/h (1 Bft)
03.06.2011 20:00 23,6 C 19,9 C 21,6 C 23,3 C 22,6 C 0,1 C 46 % 55 % 4 % 1024,5 hPa 0,0 l/m 1,4 km/h (1 Bft) O-NO 0,00 h 0,0 UV-I 11,4 C 22,6 C 1,5 km/h (1 Bft)
03.06.2011 21:00 21,4 C 20,0 C 19,1 C 20,4 C 18,4 C 0,0 C 56 % 65 % 0 % 1024,5 hPa 0,0 l/m 0,1 km/h (0 Bft) N 0,00 h 0,0 UV-I 12,2 C 18,4 C 0,0 km/h (0 Bft)
03.06.2011 22:00 19,4 C 20,0 C 17,0 C 18,0 C 15,3 C 0,0 C 67 % 76 % 0 % 1024,7 hPa 0,0 l/m 0,0 km/h (0 Bft) N 0,00 h 0,0 UV-I 13,1 C 15,3 C 0,0 km/h (0 Bft)
03.06.2011 23:00 17,8 C 20,0 C 15,6 C 16,4 C 13,5 C 0,0 C 72 % 81 % 0 % 1024,6 hPa 0,0 l/m 0,0 km/h (0 Bft) N 0,00 h 0,0 UV-I 12,6 C 13,5 C 0,0 km/h (0 Bft)
04.06.2011 00:00 16,4 C 20,0 C 14,3 C 15,1 C 12,6 C 0,0 C 75 % 84 % 0 % 1024,3 hPa 0,0 l/m 0,3 km/h (0 Bft) O-NO 0,00 h 0,0 UV-I 12,0 C 12,6 C 0,2 km/h (0 Bft)
04.06.2011 01:00 15,4 C 19,9 C 13,5 C 14,2 C 11,6 C 0,0 C 77 % 85 % 0 % 1023,8 hPa 0,0 l/m 0,0 km/h (0 Bft) N 0,00 h 0,0 UV-I 11,5 C 11,6 C 0,0 km/h (0 Bft)
04.06.2011 02:00 14,6 C 19,8 C 12,8 C 13,5 C 11,1 C 0,0 C 79 % 87 % 0 % 1023,4 hPa 0,0 l/m 0,5 km/h (0 Bft) O-NO 0,00 h 0,0 UV-I 11,0 C 11,1 C 0,6 km/h (0 Bft)
04.06.2011 03:00 14,1 C 19,6 C 12,4 C 13,0 C 10,7 C 0,0 C 80 % 88 % 0 % 1023,1 hPa 0,0 l/m 0,0 km/h (0 Bft) N 0,00 h 0,0 UV-I 10,7 C 10,7 C 0,0 km/h (0 Bft)
04.06.2011 04:00 13,7 C 19,5 C 12,1 C 12,6 C 10,4 C 0,0 C 81 % 88 % 0 % 1022,7 hPa 0,0 l/m 0,0 km/h (0 Bft) N 0,00 h 0,0 UV-I 10,5 C 10,4 C 0,0 km/h (0 Bft)
04.06.2011 05:00 13,3 C 19,4 C 11,6 C 12,3 C 10,4 C 0,0 C 82 % 89 % 0 % 1022,4 hPa 0,0 l/m 0,0 km/h (0 Bft) N 0,00 h 0,0 UV-I 10,3 C 10,4 C 0,3 km/h (0 Bft)
04.06.2011 06:00 14,7 C 19,0 C 12,2 C 13,7 C 11,7 C 0,0 C 80 % 89 % 0 % 1022,3 hPa 0,0 l/m 0,0 km/h (0 Bft) N 0,00 h 0,0 UV-I 11,2 C 11,7 C 0,0 km/h (0 Bft)
04.06.2011 07:00 17,2 C 18,8 C 14,1 C 22,4 C 22,4 C 5,2 C 75 % 88 % 93 % 1022,0 hPa 0,0 l/m 0,1 km/h (0 Bft) N 0,92 h 0,2 UV-I 12,7 C 22,4 C 0,3 km/h (0 Bft)
04.06.2011 08:00 21,2 C 18,7 C 16,1 C 26,3 C 26,3 C 5,1 C 67 % 86 % 94 % 1021,6 hPa 0,0 l/m 0,5 km/h (0 Bft) N 0,83 h 0,7 UV-I 14,8 C 26,3 C 0,8 km/h (0 Bft)
04.06.2011 09:00 21,2 C 18,7 C 18,1 C 29,0 C 29,0 C 7,8 C 67 % 81 % 100 % 1021,3 hPa 0,0 l/m 1,1 km/h (0 Bft) N-NW 1,00 h 1,3 UV-I 14,9 C 29,0 C 2,3 km/h (1 Bft)
04.06.2011 10:00 22,3 C 18,8 C 20,6 C 29,2 C 29,2 C 6,8 C 64 % 72 % 100 % 1021,0 hPa 0,0 l/m 1,8 km/h (1 Bft) O-NO 1,00 h 1,9 UV-I 15,2 C 29,2 C 3,9 km/h (1 Bft)
04.06.2011 11:00 24,1 C 18,9 C 22,6 C 29,7 C 29,7 C 5,6 C 59 % 65 % 100 % 1020,4 hPa 0,0 l/m 2,5 km/h (1 Bft) NO 1,00 h 2,6 UV-I 15,5 C 29,7 C 3,5 km/h (1 Bft)
04.06.2011 12:00 25,3 C 19,2 C 24,1 C 29,4 C 29,4 C 4,1 C 55 % 60 % 97 % 1019,3 hPa 0,0 l/m 4,8 km/h (1 Bft) O-NO 1,00 h 3,5 UV-I 15,6 C 29,4 C 6,6 km/h (2 Bft)
04.06.2011 13:00 26,5 C 19,5 C 25,5 C 30,4 C 30,4 C 3,9 C 53 % 57 % 97 % 1018,8 hPa 0,0 l/m 4,8 km/h (1 Bft) O-NO 0,92 h 3,8 UV-I 16,0 C 30,4 C 6,9 km/h (2 Bft)
04.06.2011 14:00 27,1 C 19,8 C 26,7 C 30,5 C 30,5 C 3,4 C 51 % 53 % 89 % 1017,9 hPa 0,0 l/m 5,0 km/h (1 Bft) O-NO 0,83 h 3,0 UV-I 16,0 C 30,5 C 6,9 km/h (2 Bft)
04.06.2011 15:00 28,0 C 20,1 C 28,4 C 31,7 C 31,7 C 3,7 C 49 % 49 % 95 % 1017,1 hPa 0,0 l/m 4,9 km/h (1 Bft) O-NO 0,92 h 2,4 UV-I 16,1 C 31,7 C 7,1 km/h (2 Bft)
04.06.2011 16:00 28,4 C 20,6 C 28,1 C 31,5 C 31,5 C 3,1 C 47 % 49 % 82 % 1016,2 hPa 0,0 l/m 5,5 km/h (1 Bft) O-NO 0,25 h 1,3 UV-I 16,1 C 31,5 C 6,3 km/h (2 Bft)
04.06.2011 17:00 28,7 C 21,0 C 27,6 C 31,0 C 31,0 C 2,3 C 47 % 50 % 61 % 1015,3 hPa 0,0 l/m 6,3 km/h (2 Bft) O-NO 0,00 h 0,8 UV-I 16,2 C 31,0 C 7,0 km/h (2 Bft)
04.06.2011 18:00 28,4 C 21,3 C 27,0 C 30,0 C 30,0 C 1,6 C 48 % 52 % 42 % 1014,7 hPa 0,0 l/m 6,3 km/h (2 Bft) O-NO 0,00 h 0,3 UV-I 16,3 C 30,0 C 7,1 km/h (2 Bft)
04.06.2011 19:00 27,7 C 21,4 C 26,2 C 28,6 C 28,6 C 0,9 C 49 % 54 % 24 % 1014,2 hPa 0,0 l/m 6,7 km/h (2 Bft) O-NO 0,00 h 0,1 UV-I 16,2 C 28,6 C 8,3 km/h (2 Bft)
04.06.2011 20:00 25,9 C 21,4 C 24,7 C 25,7 C 25,2 C 0,0 C 54 % 58 % 1 % 1013,5 hPa 0,0 l/m 4,7 km/h (1 Bft) NO 0,00 h 0,0 UV-I 15,7 C 25,2 C 5,6 km/h (1 Bft)
04.06.2011 21:00 24,1 C 21,5 C 22,9 C 23,7 C 23,0 C 0,0 C 58 % 62 % 0 % 1013,5 hPa 0,0 l/m 3,6 km/h (1 Bft) O-NO 0,00 h 0,0 UV-I 15,2 C 23,0 C 3,8 km/h (1 Bft)
04.06.2011 22:00 22,9 C 21,6 C 21,2 C 22,1 C 20,5 C 0,0 C 62 % 68 % 0 % 1014,1 hPa 0,0 l/m 0,2 km/h (0 Bft) N 0,00 h 0,0 UV-I 15,2 C 20,5 C 0,5 km/h (0 Bft)
04.06.2011 23:00 21,8 C 21,5 C 19,7 C 20,8 C 18,7 C 0,0 C 67 % 75 % 0 % 1013,5 hPa 0,0 l/m 0,1 km/h (0 Bft) N 0,00 h 0,0 UV-I 15,4 C 18,7 C 0,3 km/h (0 Bft)
05.06.2011 00:00 20,3 C 21,5 C 18,3 C 19,2 C 16,9 C 0,0 C 72 % 80 % 0 % 1013,0 hPa 0,0 l/m 0,0 km/h (0 Bft) N 0,00 h 0,0 UV-I 15,2 C 16,9 C 0,0 km/h (0 Bft)
05.06.2011 01:00 19,0 C 21,3 C 17,1 C 17,9 C 15,9 C 0,0 C 76 % 84 % 0 % 1012,5 hPa 0,0 l/m 0,4 km/h (0 Bft) NO 0,00 h 0,0 UV-I 14,7 C 15,9 C 0,7 km/h (0 Bft)
05.06.2011 02:00 18,5 C 21,2 C 16,7 C 17,5 C 15,6 C 0,0 C 78 % 85 % 0 % 1012,1 hPa 0,0 l/m 0,0 km/h (0 Bft) N 0,00 h 0,0 UV-I 14,6 C 15,6 C 0,3 km/h (0 Bft)
05.06.2011 03:00 18,0 C 21,1 C 16,2 C 17,0 C 15,1 C 0,0 C 79 % 86 % 0 % 1011,4 hPa 0,0 l/m 0,2 km/h (0 Bft) N 0,00 h 0,0 UV-I 14,2 C 15,1 C 0,6 km/h (0 Bft)
05.06.2011 04:00 17,2 C 21,1 C 15,6 C 16,2 C 14,2 C 0,0 C 81 % 88 % 0 % 1011,6 hPa 0,0 l/m 0,1 km/h (0 Bft) N 0,00 h 0,0 UV-I 13,9 C 14,2 C 0,0 km/h (0 Bft)
05.06.2011 05:00 16,8 C 20,9 C 15,1 C 15,9 C 14,0 C 0,0 C 82 % 88 % 0 % 1011,5 hPa 0,0 l/m 0,2 km/h (0 Bft) N 0,00 h 0,0 UV-I 13,6 C 14,0 C 0,2 km/h (0 Bft)
05.06.2011 06:00 17,7 C 20,6 C 15,5 C 17,0 C 15,4 C 0,0 C 80 % 89 % 0 % 1011,3 hPa 0,0 l/m 0,2 km/h (0 Bft) N 0,00 h 0,0 UV-I 14,3 C 15,4 C 0,4 km/h (0 Bft)
05.06.2011 07:00 20,1 C 20,4 C 17,3 C 25,0 C 25,0 C 4,9 C 77 % 88 % 90 % 1011,1 hPa 0,0 l/m 0,1 km/h (0 Bft) NO 0,92 h 0,2 UV-I 15,9 C 25,0 C 0,4 km/h (0 Bft)
05.06.2011 08:00 24,7 C 20,2 C 20,2 C 27,5 C 27,5 C 2,7 C 64 % 81 % 68 % 1010,8 hPa 0,0 l/m 3,3 km/h (1 Bft) O-NO 0,42 h 0,7 UV-I 17,4 C 27,5 C 4,9 km/h (1 Bft)
05.06.2011 09:00 24,4 C 20,3 C 22,1 C 28,2 C 28,2 C 3,8 C 61 % 71 % 96 % 1010,5 hPa 0,0 l/m 5,4 km/h (1 Bft) O-NO 1,00 h 1,4 UV-I 16,5 C 28,2 C 7,0 km/h (2 Bft)
05.06.2011 10:00 25,4 C 20,3 C 23,7 C 29,0 C 29,0 C 3,5 C 54 % 61 % 88 % 1010,1 hPa 0,0 l/m 7,5 km/h (2 Bft) NO 0,58 h 2,0 UV-I 15,5 C 29,0 C 10,7 km/h (2 Bft)
05.06.2011 11:00 26,5 C 20,4 C 24,8 C 29,7 C 29,7 C 3,2 C 51 % 57 % 83 % 1009,7 hPa 0,0 l/m 6,5 km/h (2 Bft) NO 0,67 h 2,8 UV-I 15,6 C 29,7 C 9,7 km/h (2 Bft)
05.06.2011 12:00 27,5 C 20,7 C 26,0 C 30,1 C 30,1 C 2,6 C 47 % 53 % 68 % 1009,2 hPa 0,0 l/m 8,2 km/h (2 Bft) NO 0,00 h 3,8 UV-I 15,2 C 30,1 C 11,8 km/h (2 Bft)
05.06.2011 13:00 28,2 C 20,9 C 26,8 C 30,8 C 30,8 C 2,6 C 47 % 51 % 68 % 1008,8 hPa 0,0 l/m 7,1 km/h (2 Bft) O-NO 0,00 h 4,0 UV-I 15,7 C 30,8 C 9,4 km/h (2 Bft)
05.06.2011 14:00 28,7 C 21,1 C 27,7 C 32,2 C 32,2 C 3,5 C 48 % 52 % 88 % 1008,3 hPa 0,0 l/m 4,7 km/h (1 Bft) O 0,67 h 3,5 UV-I 16,5 C 32,2 C 5,7 km/h (1 Bft)
05.06.2011 15:00 29,2 C 21,4 C 29,2 C 32,5 C 32,5 C 3,3 C 47 % 50 % 87 % 1007,5 hPa 0,0 l/m 4,2 km/h (1 Bft) NO 0,58 h 2,5 UV-I 16,8 C 32,5 C 6,4 km/h (2 Bft)
05.06.2011 16:00 29,5 C 21,9 C 28,4 C 33,2 C 33,2 C 3,7 C 47 % 51 % 92 % 1006,7 hPa 0,0 l/m 3,1 km/h (1 Bft) NO 0,75 h 1,3 UV-I 16,8 C 33,2 C 4,9 km/h (1 Bft)
05.06.2011 17:00 29,5 C 22,2 C 28,0 C 31,7 C 31,7 C 2,2 C 46 % 52 % 58 % 1006,2 hPa 0,0 l/m 5,2 km/h (1 Bft) O-NO 0,00 h 0,8 UV-I 16,8 C 31,7 C 6,3 km/h (2 Bft)
05.06.2011 18:00 29,6 C 22,4 C 27,6 C 31,7 C 31,7 C 2,1 C 45 % 52 % 56 % 1005,5 hPa 0,0 l/m 4,9 km/h (1 Bft) O-NO 0,00 h 0,3 UV-I 16,5 C 31,7 C 6,0 km/h (2 Bft)
05.06.2011 19:00 28,4 C 22,6 C 26,5 C 29,0 C 29,0 C 0,6 C 47 % 53 % 17 % 1005,4 hPa 0,0 l/m 4,5 km/h (1 Bft) O-NO 0,00 h 0,1 UV-I 16,0 C 29,0 C 6,3 km/h (2 Bft)
05.06.2011 20:00 25,9 C 22,6 C 24,1 C 25,3 C 24,0 C 0,0 C 55 % 61 % 0 % 1006,3 hPa 0,0 l/m 4,4 km/h (1 Bft) S 0,00 h 0,0 UV-I 16,1 C 24,0 C 7,5 km/h (2 Bft)
05.06.2011 21:00 22,8 C 22,9 C 20,8 C 21,6 C 19,3 C 0,0 C 69 % 76 % 0 % 1007,2 hPa 0,7 l/m 0,7 km/h (0 Bft) NO 0,00 h 0,0 UV-I 16,8 C 19,3 C 0,3 km/h (0 Bft)
05.06.2011 22:00 20,6 C 23,0 C 18,5 C 19,7 C 18,0 C 0,0 C 80 % 91 % 0 % 1007,0 hPa 1,4 l/m 0,4 km/h (0 Bft) N 0,00 h 0,0 UV-I 17,1 C 18,0 C 0,4 km/h (0 Bft)
05.06.2011 23:00 20,1 C 23,0 C 18,1 C 19,2 C 17,5 C 0,0 C 83 % 93 % 0 % 1006,2 hPa 0,0 l/m 0,1 km/h (0 Bft) N 0,00 h 0,0 UV-I 17,1 C 17,5 C 0,2 km/h (0 Bft)
Min-Datum _ 03.06.11 02.06.11 03.06.11 03.06.11 03.06.11 30.05.11 30.05.11 30.05.11 30.05.11 05.06.11 - 30.05.11 - - 30.05.11 02.06.11 03.06.11 30.05.11
_ Min-Zeit 05:25 08:00 05:50 05:25 04:40 00:00 18:25 14:55 00:00 18:30 - 00:00 - - 00:00 13:25 04:40 00:00
Minimum _ 10,0 C 17,0 C 8,6 C 9,0 C 7,1 C 0,0 C 36 % 40 % 0 % 1005,3 hPa - 0,0 km/h (0 Bft) - - 0,0 UV-I 5,9 C 7,1 C 0,0 km/h (0 Bft)
Max-Datum _ 30.05.11 05.06.11 30.05.11 30.05.11 30.05.11 30.05.11 01.06.11 31.05.11 30.05.11 02.06.11 31.05.11 31.05.11 - 30.05.11 30.05.11 05.06.11 30.05.11 01.06.11
_ Max-Zeit 18:00 21:40 15:08 16:35 16:35 10:00 23:00 18:15 07:15 09:50 15:25 15:00 - 08:10 13:20 08:35 16:35 05:09
Maximum _ 29,9 C 23,1 C 29,8 C 34,3 C 34,3 C 10,3 C 88 % 95 % 100 % 1030,9 hPa 11,0 l/m 13,7 km/h
S (3 Bft)
- 0,17 h 4,5 UV-I 18,4 C 34,3 C 28,3 km/h
S (4 Bft)
Durchschnitt _ 19,6 C 19,6 C 17,9 C 21,0 C 20,1 C 1,8 C 65 % 73 % 36 % 1019,3 hPa #26,7 l/m 1,9 km/h (1 Bft) O-NO #49:17 h 1,5 UV-I 12,3 C 20,1 C 2,8 km/h (1 Bft)
2013 www.wetterstation-wechselburg.de